sensor_id;sensor_type;location;lat;lon;timestamp;temperature;humidity
8424;DHT22;4249;49.072;9.770;2022-11-11T00:01:36;3.50;1.00
8424;DHT22;4249;49.072;9.770;2022-11-11T00:04:24;3.50;1.00
8424;DHT22;4249;49.072;9.770;2022-11-11T00:07:11;3.50;1.00
8424;DHT22;4249;49.072;9.770;2022-11-11T00:09:58;3.40;1.00
8424;DHT22;4249;49.072;9.770;2022-11-11T00:12:45;3.40;1.00
8424;DHT22;4249;49.072;9.770;2022-11-11T00:15:36;3.30;1.00
8424;DHT22;4249;49.072;9.770;2022-11-11T00:18:23;3.30;1.00
8424;DHT22;4249;49.072;9.770;2022-11-11T00:21:28;3.20;1.00
8424;DHT22;4249;49.072;9.770;2022-11-11T00:24:32;3.20;1.00
8424;DHT22;4249;49.072;9.770;2022-11-11T00:27:38;3.20;1.00
8424;DHT22;4249;49.072;9.770;2022-11-11T00:30:25;3.30;1.00
8424;DHT22;4249;49.072;9.770;2022-11-11T00:33:13;3.20;1.00
8424;DHT22;4249;49.072;9.770;2022-11-11T00:36:01;3.20;1.00
8424;DHT22;4249;49.072;9.770;2022-11-11T00:38:48;3.20;1.00
8424;DHT22;4249;49.072;9.770;2022-11-11T00:41:37;3.20;1.00
8424;DHT22;4249;49.072;9.770;2022-11-11T00:44:24;3.10;1.00
8424;DHT22;4249;49.072;9.770;2022-11-11T00:47:11;3.00;1.00
8424;DHT22;4249;49.072;9.770;2022-11-11T00:50:20;3.00;1.00
8424;DHT22;4249;49.072;9.770;2022-11-11T00:53:27;3.00;1.00
8424;DHT22;4249;49.072;9.770;2022-11-11T00:56:14;3.00;1.00
8424;DHT22;4249;49.072;9.770;2022-11-11T00:59:02;2.90;1.00
8424;DHT22;4249;49.072;9.770;2022-11-11T01:01:49;2.90;1.00
8424;DHT22;4249;49.072;9.770;2022-11-11T01:04:36;2.90;1.00
8424;DHT22;4249;49.072;9.770;2022-11-11T01:07:25;2.80;1.00
8424;DHT22;4249;49.072;9.770;2022-11-11T01:10:12;2.80;1.00
8424;DHT22;4249;49.072;9.770;2022-11-11T01:13:21;2.80;1.00
8424;DHT22;4249;49.072;9.770;2022-11-11T01:16:11;2.70;1.00
8424;DHT22;4249;49.072;9.770;2022-11-11T01:18:59;2.70;1.00
8424;DHT22;4249;49.072;9.770;2022-11-11T01:21:46;2.70;1.00
8424;DHT22;4249;49.072;9.770;2022-11-11T01:24:36;2.70;1.00
8424;DHT22;4249;49.072;9.770;2022-11-11T01:27:23;2.70;1.00
8424;DHT22;4249;49.072;9.770;2022-11-11T01:30:10;2.70;1.00
8424;DHT22;4249;49.072;9.770;2022-11-11T01:32:59;2.70;1.00
8424;DHT22;4249;49.072;9.770;2022-11-11T01:35:46;2.70;1.00
8424;DHT22;4249;49.072;9.770;2022-11-11T01:38:34;2.70;1.00
8424;DHT22;4249;49.072;9.770;2022-11-11T01:41:25;2.60;1.00
8424;DHT22;4249;49.072;9.770;2022-11-11T01:44:43;2.60;1.00
8424;DHT22;4249;49.072;9.770;2022-11-11T01:47:31;2.60;1.00
8424;DHT22;4249;49.072;9.770;2022-11-11T01:50:40;2.50;1.00
8424;DHT22;4249;49.072;9.770;2022-11-11T01:53:26;2.50;1.00
8424;DHT22;4249;49.072;9.770;2022-11-11T01:56:13;2.50;1.00
8424;DHT22;4249;49.072;9.770;2022-11-11T01:59:06;2.50;1.00
8424;DHT22;4249;49.072;9.770;2022-11-11T02:01:55;2.50;1.00
8424;DHT22;4249;49.072;9.770;2022-11-11T02:04:43;2.50;1.00
8424;DHT22;4249;49.072;9.770;2022-11-11T02:07:48;2.50;1.00
8424;DHT22;4249;49.072;9.770;2022-11-11T02:10:37;2.50;1.00
8424;DHT22;4249;49.072;9.770;2022-11-11T02:13:25;2.40;1.00
8424;DHT22;4249;49.072;9.770;2022-11-11T02:16:32;2.40;1.00
8424;DHT22;4249;49.072;9.770;2022-11-11T02:19:26;2.40;1.00
8424;DHT22;4249;49.072;9.770;2022-11-11T02:22:22;2.30;1.00
8424;DHT22;4249;49.072;9.770;2022-11-11T02:25:18;2.30;1.00
8424;DHT22;4249;49.072;9.770;2022-11-11T02:28:06;2.30;1.00
8424;DHT22;4249;49.072;9.770;2022-11-11T02:30:53;2.30;1.00
8424;DHT22;4249;49.072;9.770;2022-11-11T02:33:40;2.30;1.00
8424;DHT22;4249;49.072;9.770;2022-11-11T02:36:28;2.30;1.00
8424;DHT22;4249;49.072;9.770;2022-11-11T02:39:15;2.20;1.00
8424;DHT22;4249;49.072;9.770;2022-11-11T02:42:04;2.30;1.00
8424;DHT22;4249;49.072;9.770;2022-11-11T02:44:55;2.30;1.00
8424;DHT22;4249;49.072;9.770;2022-11-11T02:47:43;2.20;1.00
8424;DHT22;4249;49.072;9.770;2022-11-11T02:50:30;2.20;1.00
8424;DHT22;4249;49.072;9.770;2022-11-11T02:53:17;2.20;1.00
8424;DHT22;4249;49.072;9.770;2022-11-11T02:56:05;2.10;1.00
8424;DHT22;4249;49.072;9.770;2022-11-11T02:58:54;2.10;1.00
8424;DHT22;4249;49.072;9.770;2022-11-11T03:01:41;2.10;1.00
8424;DHT22;4249;49.072;9.770;2022-11-11T03:04:28;2.10;1.00
8424;DHT22;4249;49.072;9.770;2022-11-11T03:07:16;2.10;1.00
8424;DHT22;4249;49.072;9.770;2022-11-11T03:10:03;2.10;1.00
8424;DHT22;4249;49.072;9.770;2022-11-11T03:12:50;2.10;1.00
8424;DHT22;4249;49.072;9.770;2022-11-11T03:15:39;2.00;1.00
8424;DHT22;4249;49.072;9.770;2022-11-11T03:18:27;2.00;1.00
8424;DHT22;4249;49.072;9.770;2022-11-11T03:21:14;2.00;1.00
8424;DHT22;4249;49.072;9.770;2022-11-11T03:24:01;2.00;1.00
8424;DHT22;4249;49.072;9.770;2022-11-11T03:26:48;2.00;1.00
8424;DHT22;4249;49.072;9.770;2022-11-11T03:29:35;2.00;1.00
8424;DHT22;4249;49.072;9.770;2022-11-11T03:32:23;2.00;1.00
8424;DHT22;4249;49.072;9.770;2022-11-11T03:35:11;2.00;1.00
8424;DHT22;4249;49.072;9.770;2022-11-11T03:37:58;2.00;1.00
8424;DHT22;4249;49.072;9.770;2022-11-11T03:41:08;2.00;1.00
8424;DHT22;4249;49.072;9.770;2022-11-11T03:43:55;1.90;1.00
8424;DHT22;4249;49.072;9.770;2022-11-11T03:46:42;1.90;1.00
8424;DHT22;4249;49.072;9.770;2022-11-11T03:49:31;1.90;1.00
8424;DHT22;4249;49.072;9.770;2022-11-11T03:52:18;1.90;1.00
8424;DHT22;4249;49.072;9.770;2022-11-11T03:55:06;1.90;1.00
8424;DHT22;4249;49.072;9.770;2022-11-11T03:57:53;1.90;1.00
8424;DHT22;4249;49.072;9.770;2022-11-11T04:00:41;1.90;1.00
8424;DHT22;4249;49.072;9.770;2022-11-11T04:03:28;1.90;1.00
8424;DHT22;4249;49.072;9.770;2022-11-11T04:06:34;1.90;1.00
8424;DHT22;4249;49.072;9.770;2022-11-11T04:09:38;1.90;1.00
8424;DHT22;4249;49.072;9.770;2022-11-11T04:12:43;1.90;1.00
8424;DHT22;4249;49.072;9.770;2022-11-11T04:15:44;1.90;1.00
8424;DHT22;4249;49.072;9.770;2022-11-11T04:18:48;1.90;1.00
8424;DHT22;4249;49.072;9.770;2022-11-11T04:21:54;1.90;1.00
8424;DHT22;4249;49.072;9.770;2022-11-11T04:24:41;1.90;1.00
8424;DHT22;4249;49.072;9.770;2022-11-11T04:27:46;1.90;1.00
8424;DHT22;4249;49.072;9.770;2022-11-11T04:30:53;1.90;1.00
8424;DHT22;4249;49.072;9.770;2022-11-11T04:33:40;1.80;1.00
8424;DHT22;4249;49.072;9.770;2022-11-11T04:36:27;1.80;1.00
8424;DHT22;4249;49.072;9.770;2022-11-11T04:39:15;1.80;1.00
8424;DHT22;4249;49.072;9.770;2022-11-11T04:42:26;1.70;1.00
8424;DHT22;4249;49.072;9.770;2022-11-11T04:45:14;1.80;1.00
8424;DHT22;4249;49.072;9.770;2022-11-11T04:48:20;1.80;1.00
8424;DHT22;4249;49.072;9.770;2022-11-11T04:51:07;1.80;1.00
8424;DHT22;4249;49.072;9.770;2022-11-11T04:53:55;1.70;1.00
8424;DHT22;4249;49.072;9.770;2022-11-11T04:56:43;1.80;1.00
8424;DHT22;4249;49.072;9.770;2022-11-11T04:59:35;1.70;1.00
8424;DHT22;4249;49.072;9.770;2022-11-11T05:02:22;1.70;1.00
8424;DHT22;4249;49.072;9.770;2022-11-11T05:05:28;1.70;1.00
8424;DHT22;4249;49.072;9.770;2022-11-11T05:08:37;1.70;1.00
8424;DHT22;4249;49.072;9.770;2022-11-11T05:11:45;1.70;1.00
8424;DHT22;4249;49.072;9.770;2022-11-11T05:14:32;1.70;1.00
8424;DHT22;4249;49.072;9.770;2022-11-11T05:17:36;1.70;1.00
8424;DHT22;4249;49.072;9.770;2022-11-11T05:20:41;1.80;1.00
8424;DHT22;4249;49.072;9.770;2022-11-11T05:23:46;1.80;1.00
8424;DHT22;4249;49.072;9.770;2022-11-11T05:26:52;1.80;1.00
8424;DHT22;4249;49.072;9.770;2022-11-11T05:29:39;1.80;1.00
8424;DHT22;4249;49.072;9.770;2022-11-11T05:32:27;1.70;1.00
8424;DHT22;4249;49.072;9.770;2022-11-11T05:35:15;1.70;1.00
8424;DHT22;4249;49.072;9.770;2022-11-11T05:38:02;1.70;1.00
8424;DHT22;4249;49.072;9.770;2022-11-11T05:41:08;1.70;1.00
8424;DHT22;4249;49.072;9.770;2022-11-11T05:43:57;1.70;1.00
8424;DHT22;4249;49.072;9.770;2022-11-11T05:46:44;1.70;1.00
8424;DHT22;4249;49.072;9.770;2022-11-11T05:49:31;1.70;1.00
8424;DHT22;4249;49.072;9.770;2022-11-11T05:52:18;1.70;1.00
8424;DHT22;4249;49.072;9.770;2022-11-11T05:55:07;1.70;1.00
8424;DHT22;4249;49.072;9.770;2022-11-11T05:57:54;1.70;1.00
8424;DHT22;4249;49.072;9.770;2022-11-11T06:00:42;1.70;1.00
8424;DHT22;4249;49.072;9.770;2022-11-11T06:03:30;1.70;1.00
8424;DHT22;4249;49.072;9.770;2022-11-11T06:06:17;1.70;1.00
8424;DHT22;4249;49.072;9.770;2022-11-11T06:09:05;1.70;1.00
8424;DHT22;4249;49.072;9.770;2022-11-11T06:11:54;1.70;1.00
8424;DHT22;4249;49.072;9.770;2022-11-11T06:14:41;1.70;1.00
8424;DHT22;4249;49.072;9.770;2022-11-11T06:17:29;1.70;1.00
8424;DHT22;4249;49.072;9.770;2022-11-11T06:20:16;1.80;1.00
8424;DHT22;4249;49.072;9.770;2022-11-11T06:23:04;1.70;1.00
8424;DHT22;4249;49.072;9.770;2022-11-11T06:25:51;1.80;1.00
8424;DHT22;4249;49.072;9.770;2022-11-11T06:28:56;1.70;1.00
8424;DHT22;4249;49.072;9.770;2022-11-11T06:31:24;1.70;1.00
8424;DHT22;4249;49.072;9.770;2022-11-11T06:33:55;1.70;1.00
8424;DHT22;4249;49.072;9.770;2022-11-11T06:36:22;1.70;1.00
8424;DHT22;4249;49.072;9.770;2022-11-11T06:38:49;1.70;1.00
8424;DHT22;4249;49.072;9.770;2022-11-11T06:41:16;1.80;1.00
8424;DHT22;4249;49.072;9.770;2022-11-11T06:43:43;1.80;1.00
8424;DHT22;4249;49.072;9.770;2022-11-11T06:46:15;1.80;1.00
8424;DHT22;4249;49.072;9.770;2022-11-11T06:48:43;1.90;1.00
8424;DHT22;4249;49.072;9.770;2022-11-11T06:51:11;1.90;1.00
8424;DHT22;4249;49.072;9.770;2022-11-11T06:53:39;2.00;1.00
8424;DHT22;4249;49.072;9.770;2022-11-11T06:56:07;2.00;1.00
8424;DHT22;4249;49.072;9.770;2022-11-11T06:58:34;2.10;1.00
8424;DHT22;4249;49.072;9.770;2022-11-11T07:01:03;2.20;1.00
8424;DHT22;4249;49.072;9.770;2022-11-11T07:03:30;2.20;1.00
8424;DHT22;4249;49.072;9.770;2022-11-11T07:05:59;2.30;1.00
8424;DHT22;4249;49.072;9.770;2022-11-11T07:08:29;2.40;1.00
8424;DHT22;4249;49.072;9.770;2022-11-11T07:10:56;2.40;1.00
8424;DHT22;4249;49.072;9.770;2022-11-11T07:13:23;2.50;1.00
8424;DHT22;4249;49.072;9.770;2022-11-11T07:15:50;2.60;1.00
8424;DHT22;4249;49.072;9.770;2022-11-11T07:18:17;2.70;1.00
8424;DHT22;4249;49.072;9.770;2022-11-11T07:20:44;2.80;1.00
8424;DHT22;4249;49.072;9.770;2022-11-11T07:23:11;2.90;1.00
8424;DHT22;4249;49.072;9.770;2022-11-11T07:25:39;3.00;1.00
8424;DHT22;4249;49.072;9.770;2022-11-11T07:28:06;3.10;1.00
8424;DHT22;4249;49.072;9.770;2022-11-11T07:30:33;3.20;1.00
8424;DHT22;4249;49.072;9.770;2022-11-11T07:33:00;3.30;1.00
8424;DHT22;4249;49.072;9.770;2022-11-11T07:35:27;3.30;1.00
8424;DHT22;4249;49.072;9.770;2022-11-11T07:37:53;3.40;1.00
8424;DHT22;4249;49.072;9.770;2022-11-11T07:40:20;3.50;1.00
8424;DHT22;4249;49.072;9.770;2022-11-11T07:42:49;3.50;1.00
8424;DHT22;4249;49.072;9.770;2022-11-11T07:45:16;3.50;1.00
8424;DHT22;4249;49.072;9.770;2022-11-11T07:47:43;3.60;1.00
8424;DHT22;4249;49.072;9.770;2022-11-11T07:50:11;3.60;1.00
8424;DHT22;4249;49.072;9.770;2022-11-11T07:52:38;3.60;1.00
8424;DHT22;4249;49.072;9.770;2022-11-11T07:55:06;3.70;1.00
8424;DHT22;4249;49.072;9.770;2022-11-11T07:57:33;3.70;1.00
8424;DHT22;4249;49.072;9.770;2022-11-11T08:00:01;3.70;1.00
8424;DHT22;4249;49.072;9.770;2022-11-11T08:02:28;3.70;1.00
8424;DHT22;4249;49.072;9.770;2022-11-11T08:04:55;3.80;1.00
8424;DHT22;4249;49.072;9.770;2022-11-11T08:07:22;3.80;1.00
8424;DHT22;4249;49.072;9.770;2022-11-11T08:09:49;3.80;1.00
8424;DHT22;4249;49.072;9.770;2022-11-11T08:12:17;3.90;1.00
8424;DHT22;4249;49.072;9.770;2022-11-11T08:15:04;4.00;1.00
8424;DHT22;4249;49.072;9.770;2022-11-11T08:17:35;4.10;1.00
8424;DHT22;4249;49.072;9.770;2022-11-11T08:20:03;4.20;1.00
8424;DHT22;4249;49.072;9.770;2022-11-11T08:22:35;4.30;1.00
8424;DHT22;4249;49.072;9.770;2022-11-11T08:25:02;4.40;1.00
8424;DHT22;4249;49.072;9.770;2022-11-11T08:27:29;4.60;1.00
8424;DHT22;4249;49.072;9.770;2022-11-11T08:29:56;4.70;1.00
8424;DHT22;4249;49.072;9.770;2022-11-11T08:32:27;4.80;1.00
8424;DHT22;4249;49.072;9.770;2022-11-11T08:34:54;5.00;1.00
8424;DHT22;4249;49.072;9.770;2022-11-11T08:37:21;5.10;1.00
8424;DHT22;4249;49.072;9.770;2022-11-11T08:39:48;5.30;1.00
8424;DHT22;4249;49.072;9.770;2022-11-11T08:42:17;5.30;1.00
8424;DHT22;4249;49.072;9.770;2022-11-11T08:44:43;5.40;1.00
8424;DHT22;4249;49.072;9.770;2022-11-11T08:47:11;5.50;1.00
8424;DHT22;4249;49.072;9.770;2022-11-11T08:49:39;5.60;1.00
8424;DHT22;4249;49.072;9.770;2022-11-11T08:52:07;5.70;1.00
8424;DHT22;4249;49.072;9.770;2022-11-11T08:54:33;5.90;1.00
8424;DHT22;4249;49.072;9.770;2022-11-11T08:57:00;6.10;1.00
8424;DHT22;4249;49.072;9.770;2022-11-11T08:59:27;6.20;1.00
8424;DHT22;4249;49.072;9.770;2022-11-11T09:01:54;6.30;1.00
8424;DHT22;4249;49.072;9.770;2022-11-11T09:04:21;6.50;1.00
8424;DHT22;4249;49.072;9.770;2022-11-11T09:06:49;6.60;1.00
8424;DHT22;4249;49.072;9.770;2022-11-11T09:09:17;6.70;1.00
8424;DHT22;4249;49.072;9.770;2022-11-11T09:11:46;6.90;1.00
8424;DHT22;4249;49.072;9.770;2022-11-11T09:14:13;7.10;1.00
8424;DHT22;4249;49.072;9.770;2022-11-11T09:16:40;7.20;1.00
8424;DHT22;4249;49.072;9.770;2022-11-11T09:19:06;7.40;1.00
8424;DHT22;4249;49.072;9.770;2022-11-11T09:21:33;7.50;1.00
8424;DHT22;4249;49.072;9.770;2022-11-11T09:24:02;7.60;1.00
8424;DHT22;4249;49.072;9.770;2022-11-11T09:26:28;7.80;1.00
8424;DHT22;4249;49.072;9.770;2022-11-11T09:28:55;7.90;1.00
8424;DHT22;4249;49.072;9.770;2022-11-11T09:31:22;8.00;1.00
8424;DHT22;4249;49.072;9.770;2022-11-11T09:33:50;8.20;1.00
8424;DHT22;4249;49.072;9.770;2022-11-11T09:36:18;8.30;1.00
8424;DHT22;4249;49.072;9.770;2022-11-11T09:38:45;8.40;99.90
8424;DHT22;4249;49.072;9.770;2022-11-11T09:41:17;8.60;99.90
8424;DHT22;4249;49.072;9.770;2022-11-11T09:43:51;8.80;99.90
8424;DHT22;4249;49.072;9.770;2022-11-11T09:46:27;9.00;99.40
8424;DHT22;4249;49.072;9.770;2022-11-11T09:51:54;9.40;99.90
8424;DHT22;4249;49.072;9.770;2022-11-11T09:54:30;9.50;1.00
8424;DHT22;4249;49.072;9.770;2022-11-11T09:57:02;9.60;1.00
8424;DHT22;4249;49.072;9.770;2022-11-11T09:59:36;9.80;1.00
8424;DHT22;4249;49.072;9.770;2022-11-11T10:02:14;10.00;1.00
8424;DHT22;4249;49.072;9.770;2022-11-11T10:04:51;10.10;99.90
8424;DHT22;4249;49.072;9.770;2022-11-11T10:07:26;10.20;1.00
8424;DHT22;4249;49.072;9.770;2022-11-11T10:09:58;10.30;1.00
8424;DHT22;4249;49.072;9.770;2022-11-11T10:12:34;10.50;1.00
8424;DHT22;4249;49.072;9.770;2022-11-11T10:15:04;10.70;99.90
8424;DHT22;4249;49.072;9.770;2022-11-11T10:17:34;10.90;1.00
8424;DHT22;4249;49.072;9.770;2022-11-11T10:20:12;11.10;1.00
8424;DHT22;4249;49.072;9.770;2022-11-11T10:22:43;11.10;1.00
8424;DHT22;4249;49.072;9.770;2022-11-11T10:25:19;11.00;99.90
8424;DHT22;4249;49.072;9.770;2022-11-11T10:27:50;11.00;1.00
8424;DHT22;4249;49.072;9.770;2022-11-11T10:30:19;11.00;99.90
8424;DHT22;4249;49.072;9.770;2022-11-11T10:32:55;11.00;99.90
8424;DHT22;4249;49.072;9.770;2022-11-11T10:35:24;11.10;99.90
8424;DHT22;4249;49.072;9.770;2022-11-11T10:37:58;11.10;1.00
8424;DHT22;4249;49.072;9.770;2022-11-11T10:40:30;11.20;1.00
8424;DHT22;4249;49.072;9.770;2022-11-11T10:43:01;11.20;1.00
8424;DHT22;4249;49.072;9.770;2022-11-11T10:45:34;11.30;1.00
8424;DHT22;4249;49.072;9.770;2022-11-11T10:48:08;11.40;1.00
8424;DHT22;4249;49.072;9.770;2022-11-11T10:50:38;11.40;1.00
8424;DHT22;4249;49.072;9.770;2022-11-11T10:53:12;11.30;1.00
8424;DHT22;4249;49.072;9.770;2022-11-11T10:55:44;11.40;1.00
8424;DHT22;4249;49.072;9.770;2022-11-11T10:58:17;11.50;1.00
8424;DHT22;4249;49.072;9.770;2022-11-11T11:00:48;11.60;99.90
8424;DHT22;4249;49.072;9.770;2022-11-11T11:03:21;11.70;99.90
8424;DHT22;4249;49.072;9.770;2022-11-11T11:05:54;11.80;1.00
8424;DHT22;4249;49.072;9.770;2022-11-11T11:08:25;12.00;1.00
8424;DHT22;4249;49.072;9.770;2022-11-11T11:10:56;12.20;1.00
8424;DHT22;4249;49.072;9.770;2022-11-11T11:13:32;12.30;99.90
8424;DHT22;4249;49.072;9.770;2022-11-11T11:16:05;12.40;99.90
8424;DHT22;4249;49.072;9.770;2022-11-11T11:18:32;12.50;99.90
8424;DHT22;4249;49.072;9.770;2022-11-11T11:21:02;12.70;1.00
8424;DHT22;4249;49.072;9.770;2022-11-11T11:23:35;12.70;1.00
8424;DHT22;4249;49.072;9.770;2022-11-11T11:26:02;12.80;99.90
8424;DHT22;4249;49.072;9.770;2022-11-11T11:28:32;12.90;1.00
8424;DHT22;4249;49.072;9.770;2022-11-11T11:31:00;13.00;1.00
8424;DHT22;4249;49.072;9.770;2022-11-11T11:33:48;13.10;99.90
8424;DHT22;4249;49.072;9.770;2022-11-11T11:36:17;13.20;1.00
8424;DHT22;4249;49.072;9.770;2022-11-11T11:38:45;13.20;1.00
8424;DHT22;4249;49.072;9.770;2022-11-11T11:41:15;13.20;99.90
8424;DHT22;4249;49.072;9.770;2022-11-11T11:43:44;13.20;1.00
8424;DHT22;4249;49.072;9.770;2022-11-11T11:46:18;13.30;1.00
8424;DHT22;4249;49.072;9.770;2022-11-11T11:48:56;13.20;1.00
8424;DHT22;4249;49.072;9.770;2022-11-11T11:51:32;13.20;1.00
8424;DHT22;4249;49.072;9.770;2022-11-11T11:54:17;13.20;67.60
8424;DHT22;4249;49.072;9.770;2022-11-11T11:56:51;13.20;1.00
8424;DHT22;4249;49.072;9.770;2022-11-11T11:59:26;13.10;1.00
8424;DHT22;4249;49.072;9.770;2022-11-11T12:01:59;13.10;1.00
8424;DHT22;4249;49.072;9.770;2022-11-11T12:04:58;13.10;35.30
8424;DHT22;4249;49.072;9.770;2022-11-11T12:07:38;13.20;1.00
8424;DHT22;4249;49.072;9.770;2022-11-11T12:10:23;13.30;1.00
8424;DHT22;4249;49.072;9.770;2022-11-11T12:12:57;13.30;1.00
8424;DHT22;4249;49.072;9.770;2022-11-11T12:15:33;13.40;1.00
8424;DHT22;4249;49.072;9.770;2022-11-11T12:18:15;13.50;1.00
8424;DHT22;4249;49.072;9.770;2022-11-11T12:20:50;13.50;1.00
8424;DHT22;4249;49.072;9.770;2022-11-11T12:23:44;13.60;1.00
8424;DHT22;4249;49.072;9.770;2022-11-11T12:26:18;13.60;99.90
8424;DHT22;4249;49.072;9.770;2022-11-11T12:28:55;13.60;99.90
8424;DHT22;4249;49.072;9.770;2022-11-11T12:31:37;13.60;99.90
8424;DHT22;4249;49.072;9.770;2022-11-11T12:34:20;13.70;99.90
8424;DHT22;4249;49.072;9.770;2022-11-11T12:36:55;13.70;99.90
8424;DHT22;4249;49.072;9.770;2022-11-11T12:39:35;13.70;99.90
8424;DHT22;4249;49.072;9.770;2022-11-11T12:42:11;13.60;99.90
8424;DHT22;4249;49.072;9.770;2022-11-11T12:44:50;13.50;99.90
8424;DHT22;4249;49.072;9.770;2022-11-11T12:47:28;13.50;99.90
8424;DHT22;4249;49.072;9.770;2022-11-11T12:50:10;13.50;99.90
8424;DHT22;4249;49.072;9.770;2022-11-11T12:52:46;13.50;1.00
8424;DHT22;4249;49.072;9.770;2022-11-11T12:55:19;13.40;1.00
8424;DHT22;4249;49.072;9.770;2022-11-11T12:58:06;13.40;1.00
8424;DHT22;4249;49.072;9.770;2022-11-11T13:00:41;13.30;1.00
8424;DHT22;4249;49.072;9.770;2022-11-11T13:03:29;13.30;1.00
8424;DHT22;4249;49.072;9.770;2022-11-11T13:06:04;13.30;1.00
8424;DHT22;4249;49.072;9.770;2022-11-11T13:08:50;13.20;1.00
8424;DHT22;4249;49.072;9.770;2022-11-11T13:11:25;13.20;1.00
8424;DHT22;4249;49.072;9.770;2022-11-11T13:14:06;13.20;1.00
8424;DHT22;4249;49.072;9.770;2022-11-11T13:16:34;13.30;1.00
8424;DHT22;4249;49.072;9.770;2022-11-11T13:19:05;13.40;1.00
8424;DHT22;4249;49.072;9.770;2022-11-11T13:21:46;13.50;99.90
8424;DHT22;4249;49.072;9.770;2022-11-11T13:24:22;13.50;99.90
8424;DHT22;4249;49.072;9.770;2022-11-11T13:26:52;13.40;99.90
8424;DHT22;4249;49.072;9.770;2022-11-11T13:32:25;13.30;1.00
8424;DHT22;4249;49.072;9.770;2022-11-11T13:34:55;13.30;1.00
8424;DHT22;4249;49.072;9.770;2022-11-11T13:37:25;13.30;1.00
8424;DHT22;4249;49.072;9.770;2022-11-11T13:39:57;13.30;1.00
8424;DHT22;4249;49.072;9.770;2022-11-11T13:42:27;13.30;29.10
8424;DHT22;4249;49.072;9.770;2022-11-11T13:44:58;13.20;99.90
8424;DHT22;4249;49.072;9.770;2022-11-11T13:47:33;13.10;99.90
8424;DHT22;4249;49.072;9.770;2022-11-11T13:50:05;13.10;1.00
8424;DHT22;4249;49.072;9.770;2022-11-11T13:52:35;13.00;1.00
8424;DHT22;4249;49.072;9.770;2022-11-11T13:55:06;13.00;1.00
8424;DHT22;4249;49.072;9.770;2022-11-11T13:57:53;13.10;1.00
8424;DHT22;4249;49.072;9.770;2022-11-11T14:00:40;13.10;99.90
8424;DHT22;4249;49.072;9.770;2022-11-11T14:03:30;13.10;99.90
8424;DHT22;4249;49.072;9.770;2022-11-11T14:06:35;13.10;99.90
8424;DHT22;4249;49.072;9.770;2022-11-11T14:09:56;13.10;1.00
8424;DHT22;4249;49.072;9.770;2022-11-11T14:12:44;13.20;99.90
8424;DHT22;4249;49.072;9.770;2022-11-11T14:15:37;13.20;99.90
8424;DHT22;4249;49.072;9.770;2022-11-11T14:18:42;13.10;99.90
8424;DHT22;4249;49.072;9.770;2022-11-11T14:21:51;13.10;1.00
8424;DHT22;4249;49.072;9.770;2022-11-11T14:24:42;13.10;99.90
8424;DHT22;4249;49.072;9.770;2022-11-11T14:27:31;13.00;99.90
8424;DHT22;4249;49.072;9.770;2022-11-11T14:30:35;13.00;1.00
8424;DHT22;4249;49.072;9.770;2022-11-11T14:33:32;12.90;1.00
8424;DHT22;4249;49.072;9.770;2022-11-11T14:36:25;12.80;1.00
8424;DHT22;4249;49.072;9.770;2022-11-11T14:39:24;12.70;1.00
8424;DHT22;4249;49.072;9.770;2022-11-11T14:42:42;12.70;1.00
8424;DHT22;4249;49.072;9.770;2022-11-11T14:46:04;12.60;66.70
8424;DHT22;4249;49.072;9.770;2022-11-11T14:48:57;12.50;1.00
8424;DHT22;4249;49.072;9.770;2022-11-11T14:51:49;12.30;1.00
8424;DHT22;4249;49.072;9.770;2022-11-11T14:55:11;12.30;99.90
8424;DHT22;4249;49.072;9.770;2022-11-11T14:58:04;12.10;1.00
8424;DHT22;4249;49.072;9.770;2022-11-11T15:00:59;12.00;1.00
8424;DHT22;4249;49.072;9.770;2022-11-11T15:03:48;11.90;1.00
8424;DHT22;4249;49.072;9.770;2022-11-11T15:06:42;11.80;1.00
8424;DHT22;4249;49.072;9.770;2022-11-11T15:09:50;11.70;99.90
8424;DHT22;4249;49.072;9.770;2022-11-11T15:12:53;11.60;99.90
8424;DHT22;4249;49.072;9.770;2022-11-11T15:15:49;11.50;99.90
8424;DHT22;4249;49.072;9.770;2022-11-11T15:19:00;11.40;99.90
8424;DHT22;4249;49.072;9.770;2022-11-11T15:22:01;11.30;1.00
8424;DHT22;4249;49.072;9.770;2022-11-11T15:24:55;11.20;1.00
8424;DHT22;4249;49.072;9.770;2022-11-11T15:27:53;11.10;1.00
8424;DHT22;4249;49.072;9.770;2022-11-11T15:30:50;11.00;1.00
8424;DHT22;4249;49.072;9.770;2022-11-11T15:33:47;10.80;1.00
8424;DHT22;4249;49.072;9.770;2022-11-11T15:36:49;10.70;1.00
8424;DHT22;4249;49.072;9.770;2022-11-11T15:39:39;10.60;1.00
8424;DHT22;4249;49.072;9.770;2022-11-11T15:42:29;10.50;1.00
8424;DHT22;4249;49.072;9.770;2022-11-11T15:45:23;10.40;1.00
8424;DHT22;4249;49.072;9.770;2022-11-11T15:48:17;10.20;1.00
8424;DHT22;4249;49.072;9.770;2022-11-11T15:51:15;10.10;1.00
8424;DHT22;4249;49.072;9.770;2022-11-11T15:54:19;10.00;1.00
8424;DHT22;4249;49.072;9.770;2022-11-11T15:57:27;9.80;1.00
8424;DHT22;4249;49.072;9.770;2022-11-11T16:00:30;9.70;1.00
8424;DHT22;4249;49.072;9.770;2022-11-11T16:03:28;9.60;1.00
8424;DHT22;4249;49.072;9.770;2022-11-11T16:06:17;9.60;1.00
8424;DHT22;4249;49.072;9.770;2022-11-11T16:09:07;9.60;1.00
8424;DHT22;4249;49.072;9.770;2022-11-11T16:11:57;9.60;1.00
8424;DHT22;4249;49.072;9.770;2022-11-11T16:14:46;9.60;1.00
8424;DHT22;4249;49.072;9.770;2022-11-11T16:17:38;9.50;1.00
8424;DHT22;4249;49.072;9.770;2022-11-11T16:20:33;9.40;1.00
8424;DHT22;4249;49.072;9.770;2022-11-11T16:23:23;9.30;1.00
8424;DHT22;4249;49.072;9.770;2022-11-11T16:26:11;9.20;1.00
8424;DHT22;4249;49.072;9.770;2022-11-11T16:28:59;9.10;1.00
8424;DHT22;4249;49.072;9.770;2022-11-11T16:31:46;9.00;1.00
8424;DHT22;4249;49.072;9.770;2022-11-11T16:34:40;9.00;1.00
8424;DHT22;4249;49.072;9.770;2022-11-11T16:37:28;8.90;1.00
8424;DHT22;4249;49.072;9.770;2022-11-11T16:40:27;8.90;1.00
8424;DHT22;4249;49.072;9.770;2022-11-11T16:43:16;8.90;1.00
8424;DHT22;4249;49.072;9.770;2022-11-11T16:46:06;8.80;1.00
8424;DHT22;4249;49.072;9.770;2022-11-11T16:48:54;8.70;1.00
8424;DHT22;4249;49.072;9.770;2022-11-11T16:51:43;8.60;1.00
8424;DHT22;4249;49.072;9.770;2022-11-11T16:54:35;8.60;1.00
8424;DHT22;4249;49.072;9.770;2022-11-11T16:57:27;8.60;1.00
8424;DHT22;4249;49.072;9.770;2022-11-11T17:00:18;8.50;1.00
8424;DHT22;4249;49.072;9.770;2022-11-11T17:03:10;8.50;1.00
8424;DHT22;4249;49.072;9.770;2022-11-11T17:06:01;8.40;1.00
8424;DHT22;4249;49.072;9.770;2022-11-11T17:08:51;8.30;1.00
8424;DHT22;4249;49.072;9.770;2022-11-11T17:11:43;8.20;1.00
8424;DHT22;4249;49.072;9.770;2022-11-11T17:14:32;8.20;1.00
8424;DHT22;4249;49.072;9.770;2022-11-11T17:17:20;8.10;1.00
8424;DHT22;4249;49.072;9.770;2022-11-11T17:20:09;8.10;1.00
8424;DHT22;4249;49.072;9.770;2022-11-11T17:22:57;8.00;1.00
8424;DHT22;4249;49.072;9.770;2022-11-11T17:25:46;8.00;1.00
8424;DHT22;4249;49.072;9.770;2022-11-11T17:28:35;7.90;1.00
8424;DHT22;4249;49.072;9.770;2022-11-11T17:31:23;7.90;1.00
8424;DHT22;4249;49.072;9.770;2022-11-11T17:34:10;8.00;1.00
8424;DHT22;4249;49.072;9.770;2022-11-11T17:36:57;8.00;1.00
8424;DHT22;4249;49.072;9.770;2022-11-11T17:39:44;8.00;1.00
8424;DHT22;4249;49.072;9.770;2022-11-11T17:42:34;8.00;1.00
8424;DHT22;4249;49.072;9.770;2022-11-11T17:45:21;8.00;1.00
8424;DHT22;4249;49.072;9.770;2022-11-11T17:48:09;7.90;1.00
8424;DHT22;4249;49.072;9.770;2022-11-11T17:50:57;7.90;1.00
8424;DHT22;4249;49.072;9.770;2022-11-11T17:53:44;7.90;1.00
8424;DHT22;4249;49.072;9.770;2022-11-11T17:56:31;7.90;1.00
8424;DHT22;4249;49.072;9.770;2022-11-11T17:59:20;7.90;1.00
8424;DHT22;4249;49.072;9.770;2022-11-11T18:02:10;7.70;1.00
8424;DHT22;4249;49.072;9.770;2022-11-11T18:04:57;7.60;1.00
8424;DHT22;4249;49.072;9.770;2022-11-11T18:07:44;7.50;1.00
8424;DHT22;4249;49.072;9.770;2022-11-11T18:10:32;7.40;1.00
8424;DHT22;4249;49.072;9.770;2022-11-11T18:13:19;7.30;1.00
8424;DHT22;4249;49.072;9.770;2022-11-11T18:16:14;7.30;1.00
8424;DHT22;4249;49.072;9.770;2022-11-11T18:19:02;7.40;1.00
8424;DHT22;4249;49.072;9.770;2022-11-11T18:21:49;7.50;1.00